Time;durP1;ratioP1;P1;durP2;ratioP2;P2;SDS_P1;SDS_P2;PMS_P1;PMS_P2;Temp;Humidity;BMP_temperature;BMP_pressure;BME280_temperature;BME280_humidity;BME280_pressure;Samples;Min_cycle;Max_cycle;Signal;HPM_P1;HPM_P2
2022/01/15 00:02:20;;;;;;;47.72;17.15;;;;;;;-1.05;75.60;101632.50;4985843;28;20046;-52
2022/01/15 00:04:46;;;;;;;39.45;17.50;;;;;;;-1.05;75.68;101635.03;4987890;28;20042;-56
2022/01/15 00:07:13;;;;;;;37.55;17.33;;;;;;;-1.05;75.64;101626.50;4990652;28;20497;-56
2022/01/15 00:09:42;;;;;;;37.08;14.45;;;;;;;-1.07;75.39;101626.44;4989631;28;20112;-52
2022/01/15 00:12:09;;;;;;;49.20;17.65;;;;;;;-1.06;76.03;101619.66;5004515;28;20057;-52
2022/01/15 00:14:40;;;;;;;46.55;16.10;;;;;;;-1.07;75.74;101611.19;5009487;28;20045;-57
2022/01/15 00:17:14;;;;;;;50.80;18.75;;;;;;;-1.08;75.62;101606.84;5001884;28;20261;-54
2022/01/15 00:19:42;;;;;;;48.95;18.17;;;;;;;-1.09;75.88;101609.28;5003675;28;20374;-52
2022/01/15 00:22:14;;;;;;;55.95;17.48;;;;;;;-1.11;75.42;101609.19;5004541;28;20062;-55
2022/01/15 00:24:42;;;;;;;62.65;19.85;;;;;;;-1.13;75.49;101599.66;5004804;28;20104;-53
2022/01/15 00:27:09;;;;;;;45.47;17.58;;;;;;;-1.20;75.49;101595.81;5006634;28;20062;-50
2022/01/15 00:29:37;;;;;;;40.53;15.25;;;;;;;-1.21;75.67;101594.06;5003194;28;20501;-55
2022/01/15 00:32:06;;;;;;;58.92;15.05;;;;;;;-1.23;75.57;101590.50;5005586;28;20429;-53
2022/01/15 00:34:33;;;;;;;48.95;17.58;;;;;;;-1.24;75.76;101583.66;5004708;28;20058;-53
2022/01/15 00:37:01;;;;;;;46.90;15.80;;;;;;;-1.26;75.64;101580.13;5007016;28;20053;-54
2022/01/15 00:39:27;;;;;;;40.88;17.02;;;;;;;-1.27;76.05;101578.34;5004711;28;20046;-53
2022/01/15 00:41:54;;;;;;;35.15;14.82;;;;;;;-1.31;75.71;101580.69;5002790;28;20105;-55
2022/01/15 00:44:21;;;;;;;46.28;16.20;;;;;;;-1.33;75.59;101582.25;5007658;28;20046;-53
2022/01/15 00:46:47;;;;;;;38.33;16.00;;;;;;;-1.34;76.24;101577.94;5004321;28;20111;-50
2022/01/15 00:49:14;;;;;;;51.05;18.25;;;;;;;-1.36;75.42;101574.41;5008143;28;20076;-53
2022/01/15 00:51:41;;;;;;;44.90;16.40;;;;;;;-1.35;76.13;101572.75;5007396;28;20054;-52
2022/01/15 00:54:07;;;;;;;37.65;16.58;;;;;;;-1.36;75.69;101569.31;5004775;28;20058;-51
2022/01/15 00:56:34;;;;;;;43.50;17.88;;;;;;;-1.38;75.55;101565.78;4990353;28;20568;-52
2022/01/15 00:59:01;;;;;;;37.28;16.67;;;;;;;-1.39;75.28;101564.00;4984253;28;20585;-51
2022/01/15 01:01:27;;;;;;;40.58;16.10;;;;;;;-1.40;75.34;101556.28;4985583;28;20863;-53
2022/01/15 01:03:54;;;;;;;32.92;15.05;;;;;;;-1.43;75.52;101568.00;4986438;28;20390;-55
2022/01/15 01:06:21;;;;;;;34.67;18.02;;;;;;;-1.43;75.63;101562.03;4986965;28;20042;-48
2022/01/15 01:08:47;;;;;;;40.22;15.98;;;;;;;-1.46;75.56;101554.19;5001313;28;20115;-55
2022/01/15 01:11:18;;;;;;;39.72;16.42;;;;;;;-1.48;75.29;101553.19;5004357;28;20050;-53
2022/01/15 01:24:56;;;;;;;36.45;16.42;;;;;;;-1.61;76.03;101532.00;4986022;28;20050;-57
2022/01/15 01:27:30;;;;;;;33.60;15.48;;;;;;;-1.62;75.11;101537.84;4987489;28;20050;-52
2022/01/15 01:30:10;;;;;;;47.58;16.13;;;;;;;-1.63;75.34;101538.63;4988003;28;20050;-55
2022/01/15 01:32:47;;;;;;;38.88;15.07;;;;;;;-1.65;75.73;101540.19;4988004;28;20055;-50
2022/01/15 01:35:29;;;;;;;34.80;13.43;;;;;;;-1.66;75.38;101538.41;4986055;28;20086;-53
2022/01/15 01:37:59;;;;;;;33.25;12.48;;;;;;;-1.68;75.44;101532.34;4985379;28;20450;-58
2022/01/15 01:40:37;;;;;;;30.73;15.38;;;;;;;-1.70;75.14;101531.34;4986358;28;20042;-52
2022/01/15 01:43:26;;;;;;;33.25;13.60;;;;;;;-1.70;75.77;101532.22;4984388;28;20058;-56
2022/01/15 01:46:10;;;;;;;34.05;15.45;;;;;;;-1.71;74.94;101530.47;4987115;28;20043;-56
2022/01/15 01:48:37;;;;;;;29.88;12.77;;;;;;;-1.74;75.94;101521.72;4985918;28;20054;-53
2022/01/15 01:51:07;;;;;;;32.67;14.63;;;;;;;-1.75;75.84;101514.91;4982362;28;20047;-51
2022/01/15 01:53:35;;;;;;;32.45;14.20;;;;;;;-1.76;75.66;101520.75;4985374;28;20085;-50
2022/01/15 01:56:03;;;;;;;34.05;14.88;;;;;;;-1.75;74.83;101514.91;4966445;28;20038;-54
2022/01/15 01:58:30;;;;;;;29.80;13.82;;;;;;;-1.75;75.54;101512.34;4985787;28;20390;-58
2022/01/15 02:00:58;;;;;;;31.80;11.55;;;;;;;-1.77;74.67;101508.81;4984424;28;21310;-55
2022/01/15 02:03:25;;;;;;;31.58;14.63;;;;;;;-1.81;75.40;101503.53;4987310;28;20042;-58
2022/01/15 02:05:53;;;;;;;39.35;15.90;;;;;;;-1.81;75.68;101507.72;4982626;28;20047;-53
2022/01/15 02:08:19;;;;;;;35.80;16.52;;;;;;;-1.84;75.93;101510.03;4997433;28;20107;-51
2022/01/15 02:10:46;;;;;;;30.42;14.85;;;;;;;-1.85;75.79;101496.47;5004497;28;20066;-54
2022/01/15 02:13:13;;;;;;;30.10;15.02;;;;;;;-1.85;75.05;101486.31;5006738;28;20080;-52
2022/01/15 02:15:40;;;;;;;26.42;12.13;;;;;;;-1.85;75.02;101493.03;5005210;28;20413;-56
2022/01/15 02:18:07;;;;;;;29.95;12.68;;;;;;;-1.85;75.99;101491.38;5001915;28;20049;-51
2022/01/15 02:20:58;;;;;;;24.85;12.13;;;;;;;-1.85;75.33;101485.41;4989324;28;20077;-55
2022/01/15 02:23:41;;;;;;;22.40;12.52;;;;;;;-1.86;75.76;101484.53;4994284;28;20041;-53
2022/01/15 02:26:09;;;;;;;28.90;13.35;;;;;;;-1.90;75.60;101474.91;5003460;28;20050;-55
2022/01/15 02:28:38;;;;;;;44.53;14.88;;;;;;;-1.90;75.96;101472.38;5002800;28;20100;-52
2022/01/15 02:31:09;;;;;;;28.88;14.68;;;;;;;-1.90;74.84;101464.75;5000497;28;20054;-51
2022/01/15 02:33:37;;;;;;;33.92;14.40;;;;;;;-1.91;75.61;101465.53;5003444;28;20053;-55
2022/01/15 02:36:08;;;;;;;33.28;14.77;;;;;;;-1.92;75.63;101456.16;4996148;28;20092;-53
2022/01/15 02:38:36;;;;;;;29.85;13.65;;;;;;;-1.93;75.56;101449.28;5004887;28;20073;-54
2022/01/15 02:41:03;;;;;;;28.50;14.70;;;;;;;-1.94;75.64;101445.00;5003923;28;20045;-55
2022/01/15 02:43:33;;;;;;;36.92;14.00;;;;;;;-1.95;75.56;101433.94;5005420;28;20127;-56
2022/01/15 02:46:18;;;;;;;29.13;14.52;;;;;;;-1.93;75.49;101431.53;5005273;28;20540;-53
2022/01/15 02:48:51;;;;;;;33.92;13.80;;;;;;;-1.94;75.86;101435.75;4995799;28;20057;-50
2022/01/15 02:51:22;;;;;;;37.28;14.23;;;;;;;-1.96;75.16;101423.72;5002295;28;20054;-52
2022/01/15 02:53:54;;;;;;;33.10;15.05;;;;;;;-1.96;75.44;101416.09;5003491;28;20046;-58
2022/01/15 02:56:23;;;;;;;50.90;14.82;;;;;;;-1.96;75.61;101416.09;4999476;28;20125;-54
2022/01/15 02:58:50;;;;;;;42.55;13.13;;;;;;;-1.98;75.64;101403.28;5001884;28;20050;-57
2022/01/15 03:01:17;;;;;;;43.72;14.93;;;;;;;-1.98;75.23;101404.94;5000595;28;20050;-54
2022/01/15 03:03:45;;;;;;;41.97;14.40;;;;;;;-2.00;75.54;101403.94;4999395;28;20053;-53
2022/01/15 03:06:16;;;;;;;42.60;14.73;;;;;;;-2.00;75.83;101398.84;4999057;28;20050;-56
2022/01/15 03:08:45;;;;;;;45.17;15.82;;;;;;;-2.01;75.69;101399.63;5003533;28;20104;-56
2022/01/15 03:11:12;;;;;;;32.42;12.30;;;;;;;-2.05;75.13;101379.88;5002183;28;20400;-54
2022/01/15 03:13:41;;;;;;;40.60;14.20;;;;;;;-2.08;75.36;101386.53;4999540;28;20050;-53
2022/01/15 03:16:13;;;;;;;42.70;14.75;;;;;;;-2.10;76.00;101385.50;5002719;28;20057;-55
2022/01/15 03:18:40;;;;;;;42.55;14.88;;;;;;;-2.11;76.04;101387.94;5003225;28;20085;-57
2022/01/15 03:21:06;;;;;;;35.70;14.65;;;;;;;-2.12;75.64;101384.53;5008412;28;20444;-52
2022/01/15 03:23:33;;;;;;;34.75;14.13;;;;;;;-2.16;75.29;101371.53;5006008;28;20551;-55
2022/01/15 03:25:59;;;;;;;31.85;14.60;;;;;;;-2.16;74.87;101372.38;5008790;28;20058;-55
2022/01/15 03:28:26;;;;;;;36.00;14.05;;;;;;;-2.16;76.01;101372.38;5006296;28;20568;-55
2022/01/15 03:30:53;;;;;;;43.13;16.10;;;;;;;-2.17;76.16;101368.09;5005671;28;20061;-48
2022/01/15 03:33:19;;;;;;;43.33;15.07;;;;;;;-2.15;75.81;101369.09;5007013;28;20073;-53
2022/01/15 03:35:47;;;;;;;49.75;16.60;;;;;;;-2.13;75.36;101371.75;5001773;28;20581;-56
2022/01/15 03:38:13;;;;;;;40.60;13.90;;;;;;;-2.14;75.61;101364.88;5008612;28;20076;-54
2022/01/15 03:40:40;;;;;;;43.83;15.38;;;;;;;-2.14;74.85;101355.63;5007554;28;20058;-49
2022/01/15 03:43:07;;;;;;;44.47;15.35;;;;;;;-2.17;75.19;101352.84;5009140;28;20054;-56
2022/01/15 03:45:34;;;;;;;40.40;16.23;;;;;;;-2.19;75.05;101349.34;5001609;28;20124;-55
2022/01/15 03:48:01;;;;;;;42.55;15.43;;;;;;;-2.21;75.70;101344.16;5007849;28;20045;-55
2022/01/15 03:50:28;;;;;;;46.95;15.10;;;;;;;-2.21;75.76;101336.53;5004248;28;20066;-53
2022/01/15 03:52:55;;;;;;;36.38;16.00;;;;;;;-2.20;75.36;101324.72;5006179;28;20111;-56
2022/01/15 03:55:23;;;;;;;45.28;15.00;;;;;;;-2.22;76.05;101323.75;5007920;28;20638;-55
2022/01/15 03:57:49;;;;;;;39.15;15.82;;;;;;;-2.20;75.87;101319.63;5006595;28;20058;-51
2022/01/15 04:00:19;;;;;;;47.30;14.13;;;;;;;-2.20;75.76;101314.56;5007456;28;20045;-56
2022/01/15 04:02:48;;;;;;;40.78;15.27;;;;;;;-2.23;76.08;101321.97;4997735;28;20087;-52
2022/01/15 04:05:16;;;;;;;56.10;15.50;;;;;;;-2.24;75.78;101312.56;5006483;28;20045;-55
2022/01/15 04:07:43;;;;;;;34.42;14.90;;;;;;;-2.22;75.37;101316.13;5002292;28;20100;-53
2022/01/15 04:10:12;;;;;;;51.25;16.13;;;;;;;-2.24;75.50;101308.41;5007547;28;20053;-57
2022/01/15 04:12:39;;;;;;;40.08;14.75;;;;;;;-2.21;76.14;101307.72;5007762;28;20108;-52
2022/01/15 04:15:08;;;;;;;53.05;15.52;;;;;;;-2.23;74.95;101305.06;5002877;28;20050;-58
2022/01/15 04:17:34;;;;;;;40.88;16.92;;;;;;;-2.27;75.11;101299.69;5005730;28;20390;-57
2022/01/15 04:20:03;;;;;;;38.45;13.32;;;;;;;-2.28;75.23;101311.50;5002573;28;20617;-55
2022/01/15 04:22:30;;;;;;;41.58;16.65;;;;;;;-2.28;75.20;101296.25;5006475;28;20111;-53
2022/01/15 04:24:56;;;;;;;41.92;14.38;;;;;;;-2.31;75.11;101285.91;5006087;28;20050;-56
2022/01/15 04:27:23;;;;;;;46.03;17.27;;;;;;;-2.33;75.13;101285.78;5004701;28;20706;-57
2022/01/15 04:29:50;;;;;;;43.17;15.25;;;;;;;-2.34;75.80;101278.94;5005393;28;20057;-53
2022/01/15 04:32:18;;;;;;;40.83;16.90;;;;;;;-2.32;76.05;101289.22;5002850;28;20042;-56
2022/01/15 04:34:44;;;;;;;38.22;14.18;;;;;;;-2.31;75.80;101283.34;5005356;28;20042;-53
2022/01/15 04:37:15;;;;;;;52.28;12.45;;;;;;;-2.29;75.54;101283.47;5001251;28;20602;-53
2022/01/15 04:39:42;;;;;;;39.70;14.05;;;;;;;-2.27;76.21;101274.31;5005476;28;20050;-55
2022/01/15 04:42:10;;;;;;;39.88;13.38;;;;;;;-2.26;75.21;101273.53;5005119;28;20625;-57
2022/01/15 04:44:38;;;;;;;40.58;12.98;;;;;;;-2.27;75.56;101266.69;5004193;28;20053;-53
2022/01/15 04:47:05;;;;;;;48.08;13.45;;;;;;;-2.26;76.19;101264.25;5001782;28;20464;-53
2022/01/15 04:49:32;;;;;;;44.47;12.70;;;;;;;-2.26;76.05;101260.84;5002437;28;20108;-56
2022/01/15 04:52:00;;;;;;;45.97;12.85;;;;;;;-2.24;76.06;101266.88;5004429;28;20057;-55
2022/01/15 04:54:27;;;;;;;26.20;12.02;;;;;;;-2.25;75.98;101263.50;5000940;28;20073;-55
2022/01/15 04:56:53;;;;;;;37.88;13.20;;;;;;;-2.23;75.51;101268.69;5007367;28;20100;-53
2022/01/15 04:59:20;;;;;;;31.80;13.10;;;;;;;-2.22;76.35;101267.88;5002458;28;20088;-55
2022/01/15 05:01:47;;;;;;;41.28;11.43;;;;;;;-2.20;76.68;101269.75;5003043;28;20054;-53
2022/01/15 05:04:14;;;;;;;33.45;11.65;;;;;;;-2.19;75.41;101273.19;5002796;28;20276;-53
2022/01/15 05:06:40;;;;;;;29.20;12.45;;;;;;;-2.13;76.10;101271.06;5006450;28;20057;-53
2022/01/15 05:09:07;;;;;;;37.40;12.57;;;;;;;-2.10;76.24;101272.91;5008042;28;20054;-53
2022/01/15 05:11:46;;;;;;;32.00;10.38;;;;;;;-2.08;75.60;101274.81;5003616;28;20054;-55
2022/01/15 05:14:14;;;;;;;40.55;13.73;;;;;;;-2.10;76.37;101266.19;5006825;28;20042;-54
2022/01/15 05:16:42;;;;;;;45.75;11.68;;;;;;;-2.10;76.34;101268.72;5002945;28;20092;-57
2022/01/15 05:19:08;;;;;;;23.65;10.55;;;;;;;-2.10;76.50;101260.22;5003145;28;20053;-54
2022/01/15 05:21:35;;;;;;;38.35;13.23;;;;;;;-2.12;76.25;101267.75;5004268;28;20105;-53
2022/01/15 05:24:01;;;;;;;29.63;11.70;;;;;;;-2.12;75.97;101262.69;5004084;28;20096;-55
2022/01/15 05:26:28;;;;;;;33.97;11.73;;;;;;;-2.12;75.62;101260.16;5005757;28;20100;-56
2022/01/15 05:28:56;;;;;;;39.47;11.52;;;;;;;-2.14;76.04;101259.13;5000287;28;20493;-55
2022/01/15 05:31:24;;;;;;;29.73;11.40;;;;;;;-2.12;76.45;101266.88;5002736;28;20042;-57
2022/01/15 05:33:52;;;;;;;29.08;10.43;;;;;;;-2.17;75.91;101258.91;5000152;28;20054;-55
2022/01/15 05:36:19;;;;;;;49.58;11.63;;;;;;;-2.16;75.56;101260.69;5005171;28;20481;-58
2022/01/15 05:38:45;;;;;;;56.22;9.90;;;;;;;-2.16;76.07;101260.69;5002696;28;20061;-52
2022/01/15 05:41:12;;;;;;;38.00;11.15;;;;;;;-2.17;76.75;101261.47;5003450;28;20053;-51
2022/01/15 05:43:39;;;;;;;40.05;11.20;;;;;;;-2.14;76.66;101254.06;5003332;28;20050;-55
2022/01/15 05:46:05;;;;;;;57.78;12.93;;;;;;;-2.11;76.76;101249.19;5001372;28;20926;-58
2022/01/15 05:48:32;;;;;;;41.30;10.20;;;;;;;-2.09;75.99;101251.84;5001712;28;20054;-55
2022/01/15 05:50:59;;;;;;;41.22;9.35;;;;;;;-2.05;76.71;101250.38;5001407;28;20536;-55
2022/01/15 05:53:25;;;;;;;54.13;11.98;;;;;;;-2.03;76.73;101251.38;5005533;28;20038;-52
2022/01/15 05:55:52;;;;;;;63.67;11.05;;;;;;;-2.03;76.94;101251.38;4994955;28;20054;-55
2022/01/15 05:58:19;;;;;;;44.38;10.80;;;;;;;-2.01;77.13;101249.81;4985850;28;20046;-52
2022/01/15 06:00:45;;;;;;;53.97;12.30;;;;;;;-2.00;77.27;101251.56;4986541;28;20054;-54
2022/01/15 06:03:12;;;;;;;38.72;10.68;;;;;;;-1.98;77.13;101250.91;4981653;28;20055;-54
2022/01/15 06:05:39;;;;;;;41.67;10.77;;;;;;;-1.92;77.37;101259.72;4985492;28;20053;-54
2022/01/15 06:08:05;;;;;;;33.28;10.90;;;;;;;-1.88;77.64;101261.69;4993124;28;20054;-55
2022/01/15 06:10:33;;;;;;;31.50;12.65;;;;;;;-1.84;76.89;101264.56;5005755;28;20045;-56
2022/01/15 06:13:00;;;;;;;28.05;11.35;;;;;;;-1.79;77.36;101261.44;5000763;28;20057;-54
2022/01/15 06:15:26;;;;;;;46.00;11.45;;;;;;;-1.75;77.46;101260.88;5005674;28;20536;-53
2022/01/15 06:17:53;;;;;;;36.10;10.90;;;;;;;-1.73;76.47;101262.72;4999504;28;20096;-56
2022/01/15 06:20:20;;;;;;;26.08;8.90;;;;;;;-1.72;76.56;101268.69;5003950;28;20049;-54
2022/01/15 06:22:46;;;;;;;29.55;11.85;;;;;;;-1.74;76.34;101270.22;5002919;28;20485;-54
2022/01/15 06:25:13;;;;;;;34.80;11.35;;;;;;;-1.75;76.65;101260.88;5003895;28;20456;-53
2022/01/15 06:27:39;;;;;;;30.85;11.77;;;;;;;-1.74;76.71;101260.06;5002880;28;20058;-54
2022/01/15 06:30:06;;;;;;;28.42;10.65;;;;;;;-1.75;76.61;101259.22;5000086;28;20517;-53
2022/01/15 06:32:36;;;;;;;34.60;11.18;;;;;;;-1.73;76.39;101265.25;5003129;28;20080;-55
2022/01/15 06:35:04;;;;;;;31.35;11.75;;;;;;;-1.71;77.17;101268.81;5001985;28;20054;-55
2022/01/15 06:37:31;;;;;;;32.22;11.93;;;;;;;-1.70;76.59;101268.00;5005377;28;20111;-55
2022/01/15 06:39:58;;;;;;;29.08;10.18;;;;;;;-1.68;76.71;101255.41;5005621;28;20111;-52
2022/01/15 06:42:24;;;;;;;28.90;9.60;;;;;;;-1.66;76.99;101253.84;5002495;28;20057;-54
2022/01/15 06:44:51;;;;;;;31.13;10.38;;;;;;;-1.67;77.57;101241.94;5004789;28;20571;-53
2022/01/15 06:47:17;;;;;;;33.58;11.07;;;;;;;-1.65;77.86;101242.03;5001234;28;20099;-55
2022/01/15 06:49:44;;;;;;;28.45;9.63;;;;;;;-1.67;79.34;101239.38;5005769;28;20050;-55
2022/01/15 06:52:11;;;;;;;31.73;9.40;;;;;;;-1.65;77.89;101240.38;4997637;28;20113;-54
2022/01/15 06:54:37;;;;;;;24.77;8.43;;;;;;;-1.68;79.46;101241.03;4985478;28;20054;-54
2022/01/15 06:57:04;;;;;;;24.80;8.25;;;;;;;-1.66;78.44;101245.34;5001827;28;20044;-53
2022/01/15 06:59:31;;;;;;;22.05;9.10;;;;;;;-1.65;78.81;101245.47;4998399;28;20057;-56
2022/01/15 07:01:58;;;;;;;30.05;11.05;;;;;;;-1.62;78.05;101235.47;4992401;28;20050;-59
2022/01/15 07:04:27;;;;;;;43.90;10.15;;;;;;;-1.57;78.48;101234.13;4984866;28;20045;-54
2022/01/15 07:06:54;;;;;;;43.65;11.18;;;;;;;-1.53;77.70;101234.34;4982881;28;20097;-55
2022/01/15 07:09:20;;;;;;;38.88;10.02;;;;;;;-1.47;77.78;101234.72;4984953;28;20054;-53
2022/01/15 07:11:47;;;;;;;46.42;10.77;;;;;;;-1.44;77.74;101245.09;4985233;28;20502;-56
2022/01/15 07:14:14;;;;;;;89.65;11.07;;;;;;;-1.42;77.93;101249.50;4982351;28;20050;-53
2022/01/15 07:16:40;;;;;;;69.03;11.35;;;;;;;-1.38;78.14;101255.69;4992222;28;20053;-56
2022/01/15 07:19:07;;;;;;;56.35;10.55;;;;;;;-1.35;77.93;101243.16;4995714;28;20042;-52
2022/01/15 07:21:33;;;;;;;80.20;10.35;;;;;;;-1.32;77.59;101245.03;4983390;28;20054;-56
2022/01/15 07:24:00;;;;;;;43.95;9.85;;;;;;;-1.32;77.66;101239.94;5000712;28;20049;-56
2022/01/15 07:26:27;;;;;;;29.00;9.65;;;;;;;-1.27;77.74;101235.16;5002791;28;20097;-53
2022/01/15 07:28:53;;;;;;;26.58;8.93;;;;;;;-1.26;77.81;101229.28;5001718;28;20587;-56
2022/01/15 07:31:20;;;;;;;59.22;10.90;;;;;;;-1.27;77.18;101230.06;4998734;28;20080;-55
2022/01/15 07:33:47;;;;;;;73.68;9.10;;;;;;;-1.27;77.46;101242.78;5003816;28;20506;-50
2022/01/15 07:36:15;;;;;;;66.90;9.68;;;;;;;-1.31;78.06;101242.56;5002252;28;20509;-54
2022/01/15 07:38:41;;;;;;;55.80;9.13;;;;;;;-1.32;77.58;101230.66;5002642;28;20054;-52
2022/01/15 07:41:12;;;;;;;48.65;10.07;;;;;;;-1.31;77.09;101237.47;5002438;28;20579;-53
2022/01/15 07:43:39;;;;;;;51.60;8.65;;;;;;;-1.35;78.21;101229.59;4999715;28;20456;-54
2022/01/15 07:46:06;;;;;;;92.80;9.85;;;;;;;-1.37;78.15;101226.03;4998265;28;20045;-50
2022/01/15 07:48:32;;;;;;;112.53;10.40;;;;;;;-1.38;78.09;101230.28;5001478;28;20077;-57
2022/01/15 07:50:59;;;;;;;62.42;9.65;;;;;;;-1.38;78.07;101225.19;4982604;28;20101;-58
2022/01/15 07:53:25;;;;;;;74.68;8.65;;;;;;;-1.36;77.89;101218.53;4994660;28;20112;-54
2022/01/15 07:55:52;;;;;;;61.28;8.77;;;;;;;-1.33;77.73;101218.72;4998834;28;20206;-56
2022/01/15 07:58:18;;;;;;;28.27;7.72;;;;;;;-1.36;77.47;101210.91;5003195;28;20493;-52
2022/01/15 08:00:45;;;;;;;56.50;8.27;;;;;;;-1.35;77.91;101212.66;5004281;28;20485;-51
2022/01/15 08:03:12;;;;;;;58.17;8.70;;;;;;;-1.34;77.49;101211.88;5003322;28;20434;-53
2022/01/15 08:05:39;;;;;;;63.55;8.63;;;;;;;-1.33;77.69;101212.75;5007828;28;20046;-50
2022/01/15 08:08:05;;;;;;;42.92;8.25;;;;;;;-1.32;78.45;101215.41;5004625;28;20085;-53
2022/01/15 08:10:32;;;;;;;47.75;7.70;;;;;;;-1.33;77.91;101213.66;5010169;28;20112;-52
2022/01/15 08:12:59;;;;;;;77.70;9.13;;;;;;;-1.36;77.62;101212.53;5003300;28;20058;-56
2022/01/15 08:15:26;;;;;;;64.45;8.40;;;;;;;-1.41;77.61;101209.72;5009034;28;20050;-55
2022/01/15 08:17:53;;;;;;;112.40;9.45;;;;;;;-1.46;78.18;101200.91;5004368;28;20038;-56
2022/01/15 08:20:20;;;;;;;53.60;8.23;;;;;;;-1.46;78.55;101200.91;5004409;28;20128;-52
2022/01/15 08:22:47;;;;;;;77.68;7.55;;;;;;;-1.51;78.77;101199.72;5005219;28;20046;-54
2022/01/15 08:25:16;;;;;;;46.42;8.23;;;;;;;-1.56;78.24;101200.31;5008512;28;20042;-55
2022/01/15 08:27:43;;;;;;;73.18;8.55;;;;;;;-1.57;78.43;101198.56;5007800;28;20049;-51
2022/01/15 08:30:10;;;;;;;76.47;6.15;;;;;;;-1.62;78.65;101199.03;5007596;28;20113;-52
2022/01/15 08:32:37;;;;;;;92.35;7.75;;;;;;;-1.69;78.92;101202.84;5006315;28;20091;-49
2022/01/15 08:35:06;;;;;;;47.53;7.00;;;;;;;-1.74;80.02;101197.47;5003396;28;20131;-54
2022/01/15 08:37:34;;;;;;;62.17;7.50;;;;;;;-1.74;79.30;101200.00;5007954;28;20053;-53
2022/01/15 08:40:01;;;;;;;84.00;8.30;;;;;;;-1.79;79.77;101190.31;5003567;28;20066;-52
2022/01/15 08:42:27;;;;;;;84.03;7.95;;;;;;;-1.79;79.58;101186.09;5003551;28;20050;-52
2022/01/15 08:44:54;;;;;;;84.32;8.00;;;;;;;-1.81;79.54;101188.56;5002851;28;20050;-52
2022/01/15 08:47:21;;;;;;;21.00;5.85;;;;;;;-1.81;79.28;101188.56;5000478;28;20041;-52
2022/01/15 08:49:48;;;;;;;64.78;7.35;;;;;;;-1.82;79.60;101185.91;5004558;28;20547;-55
2022/01/15 08:52:15;;;;;;;53.83;7.35;;;;;;;-1.79;79.31;101182.69;5002005;28;20595;-51
2022/01/15 08:54:41;;;;;;;25.05;4.78;;;;;;;-1.77;79.07;101187.09;5007330;28;20070;-50
2022/01/15 08:57:08;;;;;;;55.38;6.50;;;;;;;-1.75;79.50;101192.28;5004744;28;23614;-53
2022/01/15 08:59:35;;;;;;;29.30;6.30;;;;;;;-1.71;78.81;101186.63;5006777;28;20053;-50
2022/01/15 09:02:02;;;;;;;26.55;6.05;;;;;;;-1.62;79.21;101191.41;5002670;28;20058;-55
2022/01/15 09:04:28;;;;;;;30.80;6.05;;;;;;;-1.57;78.91;101190.94;5007521;28;20124;-51
2022/01/15 09:06:55;;;;;;;25.08;6.20;;;;;;;-1.51;78.76;101187.03;5006590;28;20132;-54
2022/01/15 09:09:22;;;;;;;30.33;8.27;;;;;;;-1.46;78.52;101185.66;5009118;28;20050;-54
2022/01/15 09:11:48;;;;;;;35.55;7.28;;;;;;;-1.41;78.13;101189.41;5004435;28;20093;-57
2022/01/15 09:14:16;;;;;;;20.23;6.40;;;;;;;-1.39;78.50;101179.34;5006033;28;20096;-53
2022/01/15 09:16:42;;;;;;;38.42;6.18;;;;;;;-1.36;78.47;101185.47;5004825;28;20049;-54
2022/01/15 09:19:11;;;;;;;31.38;6.38;;;;;;;-1.33;78.62;101183.13;5003171;28;20498;-56
2022/01/15 09:21:37;;;;;;;35.03;6.35;;;;;;;-1.30;78.80;101183.34;5002893;28;20088;-54
2022/01/15 09:24:04;;;;;;;42.38;5.85;;;;;;;-1.32;78.48;101174.72;5004008;28;20111;-55
2022/01/15 09:26:59;;;;;;;29.35;5.93;;;;;;;-1.37;78.95;101180.28;5005748;28;20109;-56
2022/01/15 09:32:05;;;;;;;31.58;7.93;;;;;;;-1.39;79.17;101179.34;4999489;28;20050;-52
2022/01/15 09:34:34;;;;;;;19.48;6.28;;;;;;;-1.39;79.04;101182.72;5002612;28;20049;-53
2022/01/15 09:37:03;;;;;;;12.55;5.93;;;;;;;-1.38;78.96;101179.44;5006839;28;20096;-56
2022/01/15 09:39:30;;;;;;;11.75;4.35;;;;;;;-1.36;79.64;101182.03;5003826;28;20449;-55
2022/01/15 09:41:57;;;;;;;13.20;6.30;;;;;;;-1.34;79.27;101176.31;5006206;28;20054;-55
2022/01/15 09:44:25;;;;;;;16.98;6.72;;;;;;;-1.26;79.32;101175.88;5001720;28;20046;-54
2022/01/15 09:46:53;;;;;;;18.00;7.13;;;;;;;-1.20;79.11;101173.75;5004551;28;20058;-56
2022/01/15 09:49:23;;;;;;;16.42;5.93;;;;;;;-1.20;79.29;101166.13;5003157;28;20568;-56
2022/01/15 09:51:49;;;;;;;11.68;6.32;;;;;;;-1.12;79.27;101164.94;5001996;28;20053;-55
2022/01/15 09:54:18;;;;;;;10.93;5.80;;;;;;;-1.04;79.21;101156.13;5007551;28;20092;-54
2022/01/15 09:56:46;;;;;;;18.05;7.30;;;;;;;-0.94;78.98;101157.56;5003147;28;20050;-51
2022/01/15 09:59:13;;;;;;;14.55;6.28;;;;;;;-0.88;78.90;101159.63;5008176;28;20673;-58
2022/01/15 10:01:40;;;;;;;19.83;6.60;;;;;;;-0.80;78.73;101163.53;4998428;28;20104;-57
2022/01/15 10:04:06;;;;;;;11.77;5.75;;;;;;;-0.74;79.00;101159.59;5006465;28;20058;-58
2022/01/15 10:06:33;;;;;;;19.73;7.65;;;;;;;-0.70;78.79;101167.53;5000668;28;20493;-58
2022/01/15 10:09:04;;;;;;;15.85;6.70;;;;;;;-0.65;78.63;101172.88;5003769;28;20038;-56
2022/01/15 10:11:42;;;;;;;13.45;6.57;;;;;;;-0.63;79.02;101173.88;4999786;28;20058;-57
2022/01/15 10:14:25;;;;;;;15.85;6.40;;;;;;;-0.58;78.44;101172.47;5001251;28;20053;-51
2022/01/15 10:16:52;;;;;;;13.10;6.07;;;;;;;-0.49;78.42;101171.25;5001947;28;20064;-53
2022/01/15 10:19:35;;;;;;;15.02;6.13;;;;;;;-0.43;78.55;101171.66;5000884;28;20048;-57
2022/01/15 10:22:05;;;;;;;16.45;6.95;;;;;;;-0.39;78.62;101168.50;5006009;28;20120;-54
2022/01/15 10:24:32;;;;;;;17.15;6.72;;;;;;;-0.35;78.29;101155.16;5000865;28;20105;-55
2022/01/15 10:27:35;;;;;;;15.55;5.47;;;;;;;-0.31;78.54;101152.00;5005283;28;20096;-57
2022/01/15 10:30:21;;;;;;;;;;;;;;;-0.31;78.74;101146.91;5002166;28;20054;-57
2022/01/15 10:32:59;;;;;;;9.98;5.60;;;;;;;-0.26;78.20;101145.50;5000654;28;19925;-57
2022/01/15 10:35:33;;;;;;;13.93;4.97;;;;;;;-0.22;78.38;101130.41;5005364;28;20076;-57
2022/01/15 10:38:05;;;;;;;14.15;5.75;;;;;;;-0.17;78.39;101129.03;5001101;28;20111;-57
2022/01/15 10:40:51;;;;;;;16.83;7.22;;;;;;;-0.11;78.49;101124.28;5002520;28;20049;-57
2022/01/15 10:43:19;;;;;;;16.05;7.03;;;;;;;-0.02;78.60;101114.66;5001412;28;20414;-58
2022/01/15 10:45:56;;;;;;;20.70;6.85;;;;;;;0.05;78.05;101115.88;5000943;28;20045;-58
2022/01/15 10:48:31;;;;;;;18.10;6.70;;;;;;;0.11;78.31;101110.25;5005035;28;20046;-58
2022/01/15 10:51:02;;;;;;;20.20;7.38;;;;;;;0.14;78.07;101107.00;5002378;28;20053;-55
2022/01/15 10:53:36;;;;;;;22.15;6.97;;;;;;;0.18;78.09;101121.66;5004984;28;20104;-57
2022/01/15 10:56:06;;;;;;;24.80;5.45;;;;;;;0.23;78.80;101117.69;4999113;28;20437;-54
2022/01/15 10:58:32;;;;;;;24.88;8.20;;;;;;;0.30;77.94;101116.41;4999176;28;21040;-55
2022/01/15 11:00:59;;;;;;;22.48;8.20;;;;;;;0.33;77.68;101111.44;4997902;28;20057;-55
2022/01/15 11:03:37;;;;;;;40.55;8.13;;;;;;;0.34;78.33;101114.09;5001680;28;20069;-60
2022/01/15 11:06:05;;;;;;;50.25;8.23;;;;;;;0.36;78.28;101107.41;5000696;28;20056;-57
2022/01/15 11:08:37;;;;;;;25.15;7.68;;;;;;;0.36;78.41;101107.41;4997887;28;20046;-55
2022/01/15 11:11:06;;;;;;;34.72;7.05;;;;;;;0.42;78.77;101101.78;4998316;28;20046;-58
2022/01/15 11:13:35;;;;;;;38.05;7.35;;;;;;;0.46;78.85;101097.72;5000908;28;20136;-56
2022/01/15 11:16:07;;;;;;;27.83;6.68;;;;;;;0.45;78.87;101099.41;5002710;28;20049;-53
2022/01/15 11:18:39;;;;;;;38.35;8.10;;;;;;;0.44;79.22;101097.63;5003548;28;20580;-59
2022/01/15 11:21:09;;;;;;;31.27;7.43;;;;;;;0.47;78.63;101095.25;5007002;28;20053;-58
2022/01/15 11:23:38;;;;;;;43.85;7.68;;;;;;;0.48;79.15;101091.91;5001514;28;20108;-54
2022/01/15 11:26:08;;;;;;;48.28;6.03;;;;;;;0.55;78.98;101092.25;5005128;28;20656;-55
2022/01/15 11:28:35;;;;;;;38.78;7.15;;;;;;;0.60;79.15;101085.72;5004183;28;20904;-55
2022/01/15 11:31:07;;;;;;;22.40;6.70;;;;;;;0.67;78.67;101077.63;5002590;28;20050;-56
2022/01/15 11:33:38;;;;;;;37.70;7.38;;;;;;;0.75;78.21;101080.59;5006838;28;20077;-55
2022/01/15 11:36:06;;;;;;;35.72;5.82;;;;;;;0.80;78.05;101078.28;5002263;28;21070;-58